sensor_id;sensor_type;location;lat;lon;timestamp;pressure;altitude;pressure_sealevel;temperature;humidity
54512;BME280;40419;47.438;19.026;2023-09-19T00:00:46;99297.34;;;21.00;98.15
54512;BME280;40419;47.438;19.026;2023-09-19T00:03:19;99304.50;;;20.96;98.45
54512;BME280;40419;47.438;19.026;2023-09-19T00:05:45;99301.53;;;20.87;99.56
54512;BME280;40419;47.438;19.026;2023-09-19T00:08:13;99308.19;;;20.81;100.00
54512;BME280;40419;47.438;19.026;2023-09-19T00:10:42;99303.25;;;20.78;100.00
54512;BME280;40419;47.438;19.026;2023-09-19T00:13:10;99303.81;;;20.75;100.00
54512;BME280;40419;47.438;19.026;2023-09-19T00:15:40;99293.94;;;20.69;100.00
54512;BME280;40419;47.438;19.026;2023-09-19T00:18:22;99296.25;;;20.96;99.98
54512;BME280;40419;47.438;19.026;2023-09-19T00:20:54;99295.56;;;20.75;100.00
54512;BME280;40419;47.438;19.026;2023-09-19T00:23:24;99291.16;;;20.74;100.00
54512;BME280;40419;47.438;19.026;2023-09-19T00:25:52;99295.59;;;20.65;100.00
54512;BME280;40419;47.438;19.026;2023-09-19T00:28:22;99289.00;;;20.61;100.00
54512;BME280;40419;47.438;19.026;2023-09-19T00:30:51;99296.16;;;20.67;100.00
54512;BME280;40419;47.438;19.026;2023-09-19T00:33:16;99289.56;;;20.63;100.00
54512;BME280;40419;47.438;19.026;2023-09-19T00:35:52;99279.75;;;20.46;100.00
54512;BME280;40419;47.438;19.026;2023-09-19T00:38:21;99285.53;;;20.45;100.00
54512;BME280;40419;47.438;19.026;2023-09-19T00:40:52;99291.88;;;20.40;100.00
54512;BME280;40419;47.438;19.026;2023-09-19T00:43:22;99283.34;;;20.36;100.00
54512;BME280;40419;47.438;19.026;2023-09-19T00:45:53;99282.81;;;20.34;100.00
54512;BME280;40419;47.438;19.026;2023-09-19T00:48:23;99283.97;;;20.23;100.00
54512;BME280;40419;47.438;19.026;2023-09-19T00:50:57;99285.03;;;20.27;100.00
54512;BME280;40419;47.438;19.026;2023-09-19T00:53:25;99292.47;;;20.27;100.00
54512;BME280;40419;47.438;19.026;2023-09-19T00:55:55;99281.50;;;20.22;100.00
54512;BME280;40419;47.438;19.026;2023-09-19T00:58:21;99285.09;;;20.17;100.00
54512;BME280;40419;47.438;19.026;2023-09-19T01:00:49;99287.56;;;20.13;100.00
54512;BME280;40419;47.438;19.026;2023-09-19T01:03:15;99283.97;;;20.18;100.00
54512;BME280;40419;47.438;19.026;2023-09-19T01:05:43;99283.16;;;20.12;100.00
54512;BME280;40419;47.438;19.026;2023-09-19T01:08:09;99281.53;;;20.11;100.00
54512;BME280;40419;47.438;19.026;2023-09-19T01:10:44;99281.78;;;20.15;100.00
54512;BME280;40419;47.438;19.026;2023-09-19T01:13:37;99283.63;;;20.35;100.00
54512;BME280;40419;47.438;19.026;2023-09-19T01:18:54;99274.59;;;20.24;100.00
54512;BME280;40419;47.438;19.026;2023-09-19T01:29:49;99273.81;;;20.13;100.00
54512;BME280;40419;47.438;19.026;2023-09-19T01:32:19;99281.53;;;20.11;100.00
54512;BME280;40419;47.438;19.026;2023-09-19T01:37:19;99272.44;;;20.11;100.00
54512;BME280;40419;47.438;19.026;2023-09-19T01:40:12;99263.16;;;20.07;100.00
54512;BME280;40419;47.438;19.026;2023-09-19T01:43:22;99270.25;;;20.13;100.00
54512;BME280;40419;47.438;19.026;2023-09-19T01:46:05;99272.75;;;20.04;100.00
54512;BME280;40419;47.438;19.026;2023-09-19T01:51:42;99274.97;;;19.97;100.00
54512;BME280;40419;47.438;19.026;2023-09-19T01:54:12;99275.25;;;19.95;100.00
54512;BME280;40419;47.438;19.026;2023-09-19T01:56:48;99277.22;;;19.85;100.00
54512;BME280;40419;47.438;19.026;2023-09-19T01:59:27;99265.09;;;19.91;100.00
54512;BME280;40419;47.438;19.026;2023-09-19T02:02:02;99272.25;;;19.87;100.00
54512;BME280;40419;47.438;19.026;2023-09-19T02:04:28;99271.16;;;19.72;100.00
54512;BME280;40419;47.438;19.026;2023-09-19T02:06:54;99264.03;;;19.71;100.00
54512;BME280;40419;47.438;19.026;2023-09-19T02:09:24;99270.63;;;19.75;100.00
54512;BME280;40419;47.438;19.026;2023-09-19T02:11:55;99271.44;;;19.71;100.00
54512;BME280;40419;47.438;19.026;2023-09-19T02:14:21;99269.25;;;19.73;100.00
54512;BME280;40419;47.438;19.026;2023-09-19T02:16:48;99268.72;;;19.60;100.00
54512;BME280;40419;47.438;19.026;2023-09-19T02:19:17;99262.66;;;19.63;100.00
54512;BME280;40419;47.438;19.026;2023-09-19T02:21:45;99266.78;;;19.71;100.00
54512;BME280;40419;47.438;19.026;2023-09-19T02:24:10;99263.78;;;19.68;100.00
54512;BME280;40419;47.438;19.026;2023-09-19T02:26:36;99257.19;;;19.63;100.00
54512;BME280;40419;47.438;19.026;2023-09-19T02:29:07;99253.63;;;19.58;100.00
54512;BME280;40419;47.438;19.026;2023-09-19T02:31:35;99262.97;;;19.52;100.00
54512;BME280;40419;47.438;19.026;2023-09-19T02:34:00;99268.16;;;19.53;100.00
54512;BME280;40419;47.438;19.026;2023-09-19T02:36:26;99265.16;;;19.60;100.00
54512;BME280;40419;47.438;19.026;2023-09-19T02:38:51;99274.75;;;19.57;100.00
54512;BME280;40419;47.438;19.026;2023-09-19T02:41:19;99270.66;;;19.60;100.00
54512;BME280;40419;47.438;19.026;2023-09-19T02:43:46;99278.34;;;19.53;100.00
54512;BME280;40419;47.438;19.026;2023-09-19T02:46:14;99273.94;;;19.41;100.00
54512;BME280;40419;47.438;19.026;2023-09-19T02:48:42;99276.44;;;19.38;100.00
54512;BME280;40419;47.438;19.026;2023-09-19T02:51:08;99278.34;;;19.42;100.00
54512;BME280;40419;47.438;19.026;2023-09-19T02:53:33;99264.91;;;19.41;100.00
54512;BME280;40419;47.438;19.026;2023-09-19T02:55:59;99271.19;;;19.41;100.00
54512;BME280;40419;47.438;19.026;2023-09-19T02:58:27;99273.94;;;19.41;100.00
54512;BME280;40419;47.438;19.026;2023-09-19T03:00:53;99253.66;;;19.32;100.00
54512;BME280;40419;47.438;19.026;2023-09-19T03:03:21;99254.19;;;19.29;100.00
54512;BME280;40419;47.438;19.026;2023-09-19T03:05:47;99252.56;;;19.23;100.00
54512;BME280;40419;47.438;19.026;2023-09-19T03:08:20;99261.34;;;19.25;100.00
54512;BME280;40419;47.438;19.026;2023-09-19T03:10:47;99266.00;;;19.19;100.00
54512;BME280;40419;47.438;19.026;2023-09-19T03:13:16;99272.88;;;19.17;100.00
54512;BME280;40419;47.438;19.026;2023-09-19T03:15:42;99262.16;;;19.25;100.00
54512;BME280;40419;47.438;19.026;2023-09-19T03:18:19;99270.66;;;19.19;100.00
54512;BME280;40419;47.438;19.026;2023-09-19T03:20:55;99270.41;;;19.25;100.00
54512;BME280;40419;47.438;19.026;2023-09-19T03:23:26;99258.59;;;19.30;100.00
54512;BME280;40419;47.438;19.026;2023-09-19T03:25:55;99259.41;;;19.30;100.00
54512;BME280;40419;47.438;19.026;2023-09-19T03:28:22;99268.47;;;19.36;100.00
54512;BME280;40419;47.438;19.026;2023-09-19T03:31:05;99266.84;;;19.25;100.00
54512;BME280;40419;47.438;19.026;2023-09-19T03:33:35;99268.22;;;19.22;100.00
54512;BME280;40419;47.438;19.026;2023-09-19T03:36:04;99266.28;;;19.18;100.00
54512;BME280;40419;47.438;19.026;2023-09-19T03:38:37;99273.41;;;19.24;100.00
54512;BME280;40419;47.438;19.026;2023-09-19T03:41:03;99267.09;;;19.23;100.00
54512;BME280;40419;47.438;19.026;2023-09-19T03:43:31;99272.59;;;19.18;100.00
54512;BME280;40419;47.438;19.026;2023-09-19T03:46:01;99258.34;;;19.16;100.00
54512;BME280;40419;47.438;19.026;2023-09-19T03:48:30;99265.72;;;19.16;100.00
54512;BME280;40419;47.438;19.026;2023-09-19T03:50:56;99269.59;;;19.25;100.00
54512;BME280;40419;47.438;19.026;2023-09-19T03:53:29;99265.19;;;19.24;100.00
54512;BME280;40419;47.438;19.026;2023-09-19T03:55:59;99264.34;;;19.23;100.00
54512;BME280;40419;47.438;19.026;2023-09-19T03:58:30;99263.53;;;19.33;100.00
54512;BME280;40419;47.438;19.026;2023-09-19T04:00:58;99262.72;;;19.27;100.00
54512;BME280;40419;47.438;19.026;2023-09-19T04:03:30;99268.47;;;19.26;100.00
54512;BME280;40419;47.438;19.026;2023-09-19T04:06:15;99277.53;;;19.32;100.00
54512;BME280;40419;47.438;19.026;2023-09-19T04:08:44;99272.31;;;19.30;100.00
54512;BME280;40419;47.438;19.026;2023-09-19T04:11:11;99273.94;;;19.41;100.00
54512;BME280;40419;47.438;19.026;2023-09-19T04:13:36;99275.59;;;19.53;100.00
54512;BME280;40419;47.438;19.026;2023-09-19T04:16:03;99273.94;;;19.62;100.00
54512;BME280;40419;47.438;19.026;2023-09-19T04:18:37;99285.47;;;19.48;100.00
54512;BME280;40419;47.438;19.026;2023-09-19T04:21:08;99282.19;;;19.46;100.00
54512;BME280;40419;47.438;19.026;2023-09-19T04:23:36;99289.31;;;19.42;100.00
54512;BME280;40419;47.438;19.026;2023-09-19T04:26:05;99289.06;;;19.49;100.00
54512;BME280;40419;47.438;19.026;2023-09-19T04:28:34;99292.06;;;19.53;100.00
54512;BME280;40419;47.438;19.026;2023-09-19T04:31:00;99306.34;;;19.50;100.00
54512;BME280;40419;47.438;19.026;2023-09-19T04:33:30;99303.31;;;19.51;100.00
54512;BME280;40419;47.438;19.026;2023-09-19T04:35:56;99298.66;;;19.52;100.00
54512;BME280;40419;47.438;19.026;2023-09-19T04:38:21;99304.41;;;19.65;100.00
54512;BME280;40419;47.438;19.026;2023-09-19T04:40:57;99301.38;;;19.67;100.00
54512;BME280;40419;47.438;19.026;2023-09-19T04:43:23;99312.38;;;19.77;100.00
54512;BME280;40419;47.438;19.026;2023-09-19T04:45:52;99325.81;;;19.69;100.00
54512;BME280;40419;47.438;19.026;2023-09-19T04:48:26;99318.94;;;19.71;100.00
54512;BME280;40419;47.438;19.026;2023-09-19T04:50:54;99313.19;;;19.68;100.00
54512;BME280;40419;47.438;19.026;2023-09-19T04:53:19;99322.25;;;19.73;100.00
54512;BME280;40419;47.438;19.026;2023-09-19T04:55:51;99322.00;;;19.80;100.00
54512;BME280;40419;47.438;19.026;2023-09-19T04:58:35;99315.41;;;19.55;100.00
54512;BME280;40419;47.438;19.026;2023-09-19T05:01:12;99329.41;;;19.54;100.00
54512;BME280;40419;47.438;19.026;2023-09-19T05:03:52;99319.53;;;19.53;100.00
54512;BME280;40419;47.438;19.026;2023-09-19T05:06:35;99333.25;;;19.37;100.00
54512;BME280;40419;47.438;19.026;2023-09-19T05:09:21;99330.78;;;19.36;100.00
54512;BME280;40419;47.438;19.026;2023-09-19T05:12:04;99338.72;;;19.32;100.00
54512;BME280;40419;47.438;19.026;2023-09-19T05:14:30;99339.81;;;19.05;100.00
54512;BME280;40419;47.438;19.026;2023-09-19T05:16:55;99340.09;;;19.09;100.00
54512;BME280;40419;47.438;19.026;2023-09-19T05:19:21;99336.53;;;19.08;100.00
54512;BME280;40419;47.438;19.026;2023-09-19T05:21:49;99348.84;;;19.11;100.00
54512;BME280;40419;47.438;19.026;2023-09-19T05:24:14;99353.81;;;19.04;100.00
54512;BME280;40419;47.438;19.026;2023-09-19T05:26:45;99355.94;;;18.91;100.00
54512;BME280;40419;47.438;19.026;2023-09-19T05:29:10;99357.91;;;19.06;100.00
54512;BME280;40419;47.438;19.026;2023-09-19T05:31:36;99349.66;;;18.91;100.00
54512;BME280;40419;47.438;19.026;2023-09-19T05:34:08;99364.50;;;19.05;100.00
54512;BME280;40419;47.438;19.026;2023-09-19T05:36:35;99354.00;;;18.87;100.00
54512;BME280;40419;47.438;19.026;2023-09-19T05:39:02;99356.69;;;18.71;100.00
54512;BME280;40419;47.438;19.026;2023-09-19T05:41:31;99350.69;;;18.80;100.00
54512;BME280;40419;47.438;19.026;2023-09-19T05:43:56;99355.06;;;18.75;100.00
54512;BME280;40419;47.438;19.026;2023-09-19T05:46:27;99353.66;;;18.73;100.00
54512;BME280;40419;47.438;19.026;2023-09-19T05:48:55;99355.38;;;18.84;100.00
54512;BME280;40419;47.438;19.026;2023-09-19T05:51:24;99365.56;;;18.89;100.00
54512;BME280;40419;47.438;19.026;2023-09-19T05:53:56;99363.28;;;18.81;100.00
54512;BME280;40419;47.438;19.026;2023-09-19T05:56:24;99366.91;;;18.86;100.00
54512;BME280;40419;47.438;19.026;2023-09-19T05:58:49;99367.16;;;18.80;100.00
54512;BME280;40419;47.438;19.026;2023-09-19T06:01:25;99370.13;;;18.73;100.00
54512;BME280;40419;47.438;19.026;2023-09-19T06:03:51;99376.69;;;18.67;100.00
54512;BME280;40419;47.438;19.026;2023-09-19T06:06:19;99369.81;;;18.64;100.00
54512;BME280;40419;47.438;19.026;2023-09-19T06:09:09;99375.88;;;18.71;100.00
54512;BME280;40419;47.438;19.026;2023-09-19T06:12:09;99368.13;;;18.53;100.00
54512;BME280;40419;47.438;19.026;2023-09-19T06:14:47;99377.44;;;18.52;100.00
54512;BME280;40419;47.438;19.026;2023-09-19T06:17:20;99371.47;;;18.60;100.00
54512;BME280;40419;47.438;19.026;2023-09-19T06:20:23;99387.59;;;18.51;100.00
54512;BME280;40419;47.438;19.026;2023-09-19T06:22:57;99390.28;;;18.46;100.00
54512;BME280;40419;47.438;19.026;2023-09-19T06:25:27;99383.47;;;18.49;100.00
54512;BME280;40419;47.438;19.026;2023-09-19T06:27:58;99391.19;;;18.57;100.00
54512;BME280;40419;47.438;19.026;2023-09-19T06:30:29;99397.16;;;18.44;100.00
54512;BME280;40419;47.438;19.026;2023-09-19T06:32:57;99402.91;;;18.47;100.00
54512;BME280;40419;47.438;19.026;2023-09-19T06:35:25;99402.06;;;18.41;100.00
54512;BME280;40419;47.438;19.026;2023-09-19T06:37:51;99407.72;;;18.30;100.00
54512;BME280;40419;47.438;19.026;2023-09-19T06:40:18;99409.47;;;18.41;100.00
54512;BME280;40419;47.438;19.026;2023-09-19T06:42:46;99409.31;;;18.15;100.00
54512;BME280;40419;47.438;19.026;2023-09-19T06:45:21;99410.72;;;18.23;100.00
54512;BME280;40419;47.438;19.026;2023-09-19T06:48:21;99413.38;;;18.13;100.00
54512;BME280;40419;47.438;19.026;2023-09-19T07:36:51;99478.94;;;17.38;100.00
54512;BME280;40419;47.438;19.026;2023-09-19T07:40:02;99488.31;;;17.42;100.00
54512;BME280;40419;47.438;19.026;2023-09-19T07:42:36;99495.97;;;17.40;100.00
54512;BME280;40419;47.438;19.026;2023-09-19T09:10:47;99597.38;;;17.77;100.00
54512;BME280;40419;47.438;19.026;2023-09-19T09:13:14;99582.13;;;17.86;100.00
54512;BME280;40419;47.438;19.026;2023-09-19T09:15:45;99558.81;;;17.84;100.00
54512;BME280;40419;47.438;19.026;2023-09-19T09:18:43;99557.56;;;17.92;100.00
54512;BME280;40419;47.438;19.026;2023-09-19T09:21:15;99543.91;;;18.24;100.00
54512;BME280;40419;47.438;19.026;2023-09-19T09:23:41;99538.19;;;18.31;100.00
54512;BME280;40419;47.438;19.026;2023-09-19T09:26:51;99535.28;;;18.42;100.00
54512;BME280;40419;47.438;19.026;2023-09-19T09:29:51;99516.63;;;18.07;100.00
54512;BME280;40419;47.438;19.026;2023-09-19T09:32:29;99533.44;;;18.53;100.00
54512;BME280;40419;47.438;19.026;2023-09-19T10:04:33;99569.50;;;18.77;100.00
54512;BME280;40419;47.438;19.026;2023-09-19T10:07:06;99571.19;;;18.84;100.00
54512;BME280;40419;47.438;19.026;2023-09-19T10:09:46;99572.63;;;18.91;100.00
54512;BME280;40419;47.438;19.026;2023-09-19T10:12:32;99567.53;;;19.10;100.00
54512;BME280;40419;47.438;19.026;2023-09-19T10:15:03;99578.59;;;19.26;100.00
54512;BME280;40419;47.438;19.026;2023-09-19T10:17:34;99587.41;;;19.28;100.00
54512;BME280;40419;47.438;19.026;2023-09-19T10:20:01;99576.97;;;19.30;100.00
54512;BME280;40419;47.438;19.026;2023-09-19T10:22:37;99581.66;;;19.35;100.00
54512;BME280;40419;47.438;19.026;2023-09-19T10:25:10;99582.72;;;19.28;100.00
54512;BME280;40419;47.438;19.026;2023-09-19T10:27:43;99584.31;;;19.19;100.00
54512;BME280;40419;47.438;19.026;2023-09-19T10:30:09;99588.75;;;19.25;100.00
54512;BME280;40419;47.438;19.026;2023-09-19T10:32:42;99597.78;;;19.26;100.00
54512;BME280;40419;47.438;19.026;2023-09-19T10:35:53;99594.81;;;19.33;100.00
54512;BME280;40419;47.438;19.026;2023-09-19T10:38:26;99603.66;;;18.97;100.00
54512;BME280;40419;47.438;19.026;2023-09-19T10:40:54;99597.75;;;19.16;100.00
54512;BME280;40419;47.438;19.026;2023-09-19T10:43:26;99592.53;;;19.14;100.00
54512;BME280;40419;47.438;19.026;2023-09-19T10:46:01;99604.16;;;19.37;100.00
54512;BME280;40419;47.438;19.026;2023-09-19T10:48:26;99601.19;;;19.43;100.00
54512;BME280;40419;47.438;19.026;2023-09-19T10:57:41;99611.63;;;19.46;100.00
54512;BME280;40419;47.438;19.026;2023-09-19T11:00:13;99615.47;;;19.45;100.00
54512;BME280;40419;47.438;19.026;2023-09-19T11:03:19;99617.66;;;19.48;100.00
54512;BME280;40419;47.438;19.026;2023-09-19T11:30:43;99622.88;;;20.39;100.00
54512;BME280;40419;47.438;19.026;2023-09-19T11:36:00;99619.56;;;20.32;100.00
54512;BME280;40419;47.438;19.026;2023-09-19T11:46:23;99610.22;;;20.38;100.00
54512;BME280;40419;47.438;19.026;2023-09-19T11:48:49;99601.44;;;20.51;100.00
54512;BME280;40419;47.438;19.026;2023-09-19T11:53:52;99608.31;;;20.69;100.00
54512;BME280;40419;47.438;19.026;2023-09-19T11:56:23;99602.28;;;20.67;100.00
54512;BME280;40419;47.438;19.026;2023-09-19T11:58:56;99601.97;;;20.48;100.00
54512;BME280;40419;47.438;19.026;2023-09-19T12:01:32;99589.59;;;20.56;100.00
54512;BME280;40419;47.438;19.026;2023-09-19T12:04:04;99594.53;;;20.59;100.00
54512;BME280;40419;47.438;19.026;2023-09-19T12:06:32;99597.59;;;20.42;100.00
54512;BME280;40419;47.438;19.026;2023-09-19T12:08:59;99601.72;;;20.45;100.00
54512;BME280;40419;47.438;19.026;2023-09-19T12:11:31;99594.56;;;20.54;100.00
54512;BME280;40419;47.438;19.026;2023-09-19T12:38:49;99614.31;;;21.18;100.00
54512;BME280;40419;47.438;19.026;2023-09-19T12:41:15;99617.34;;;21.11;100.00
54512;BME280;40419;47.438;19.026;2023-09-19T12:44:09;99622.00;;;21.26;100.00
54512;BME280;40419;47.438;19.026;2023-09-19T12:46:48;99624.72;;;21.31;100.00
54512;BME280;40419;47.438;19.026;2023-09-19T12:49:20;99608.50;;;21.35;100.00
54512;BME280;40419;47.438;19.026;2023-09-19T12:51:46;99603.53;;;21.37;100.00
54512;BME280;40419;47.438;19.026;2023-09-19T12:54:14;99601.38;;;21.18;100.00
54512;BME280;40419;47.438;19.026;2023-09-19T12:56:43;99607.97;;;21.22;100.00
54512;BME280;40419;47.438;19.026;2023-09-19T13:02:31;99612.09;;;21.15;100.00
54512;BME280;40419;47.438;19.026;2023-09-19T13:05:20;99599.44;;;21.19;100.00
54512;BME280;40419;47.438;19.026;2023-09-19T13:08:17;99609.91;;;21.17;100.00
54512;BME280;40419;47.438;19.026;2023-09-19T13:16:06;99607.72;;;21.09;100.00
54512;BME280;40419;47.438;19.026;2023-09-19T13:18:47;99609.66;;;21.03;100.00
54512;BME280;40419;47.438;19.026;2023-09-19T13:21:17;99617.63;;;21.10;100.00
54512;BME280;40419;47.438;19.026;2023-09-19T13:23:53;99611.56;;;21.13;100.00
54512;BME280;40419;47.438;19.026;2023-09-19T13:26:27;99610.97;;;21.31;100.00
54512;BME280;40419;47.438;19.026;2023-09-19T13:29:12;99611.84;;;21.21;100.00
54512;BME280;40419;47.438;19.026;2023-09-19T13:31:41;99613.22;;;21.14;100.00
54512;BME280;40419;47.438;19.026;2023-09-19T13:34:40;99621.16;;;21.31;100.00
54512;BME280;40419;47.438;19.026;2023-09-19T14:06:16;99639.66;;;21.04;100.00
54512;BME280;40419;47.438;19.026;2023-09-19T14:38:53;99630.88;;;20.46;100.00
54512;BME280;40419;47.438;19.026;2023-09-19T15:04:38;99640.78;;;20.52;100.00
54512;BME280;40419;47.438;19.026;2023-09-19T15:11:02;99633.06;;;20.64;100.00
54512;BME280;40419;47.438;19.026;2023-09-19T15:13:40;99646.00;;;20.59;100.00
54512;BME280;40419;47.438;19.026;2023-09-19T15:23:07;99652.59;;;20.47;100.00
54512;BME280;40419;47.438;19.026;2023-09-19T15:25:37;99658.91;;;20.43;100.00
54512;BME280;40419;47.438;19.026;2023-09-19T15:28:25;99662.47;;;20.38;100.00
54512;BME280;40419;47.438;19.026;2023-09-19T15:30:50;99659.44;;;20.50;100.00
54512;BME280;40419;47.438;19.026;2023-09-19T15:36:26;99662.72;;;20.31;100.00
54512;BME280;40419;47.438;19.026;2023-09-19T15:41:39;99662.19;;;20.50;100.00
54512;BME280;40419;47.438;19.026;2023-09-19T15:44:16;99674.84;;;20.35;100.00
54512;BME280;40419;47.438;19.026;2023-09-19T15:46:42;99677.59;;;20.35;100.00
54512;BME280;40419;47.438;19.026;2023-09-19T15:49:09;99674.00;;;20.35;100.00
54512;BME280;40419;47.438;19.026;2023-09-19T15:51:38;99670.72;;;20.43;100.00
54512;BME280;40419;47.438;19.026;2023-09-19T15:54:12;99678.97;;;20.28;100.00
54512;BME280;40419;47.438;19.026;2023-09-19T15:56:46;99677.56;;;20.25;100.00
54512;BME280;40419;47.438;19.026;2023-09-19T15:59:19;99667.41;;;20.31;100.00
54512;BME280;40419;47.438;19.026;2023-09-19T16:01:46;99669.06;;;20.27;100.00
54512;BME280;40419;47.438;19.026;2023-09-19T16:04:16;99677.28;;;20.16;100.00
54512;BME280;40419;47.438;19.026;2023-09-19T16:06:42;99678.63;;;20.04;100.00
54512;BME280;40419;47.438;19.026;2023-09-19T16:09:08;99673.91;;;19.94;100.00
54512;BME280;40419;47.438;19.026;2023-09-19T16:11:40;99684.63;;;19.95;100.00
54512;BME280;40419;47.438;19.026;2023-09-19T16:14:07;99687.63;;;19.94;100.00
54512;BME280;40419;47.438;19.026;2023-09-19T16:16:35;99692.53;;;19.81;100.00
54512;BME280;40419;47.438;19.026;2023-09-19T16:19:04;99679.03;;;19.75;100.00
54512;BME280;40419;47.438;19.026;2023-09-19T16:21:37;99677.09;;;19.70;100.00
54512;BME280;40419;47.438;19.026;2023-09-19T16:24:05;99677.84;;;19.60;100.00
54512;BME280;40419;47.438;19.026;2023-09-19T16:26:34;99680.06;;;19.58;100.00
54512;BME280;40419;47.438;19.026;2023-09-19T16:29:07;99679.81;;;19.65;100.00
54512;BME280;40419;47.438;19.026;2023-09-19T16:31:37;99678.66;;;19.56;100.00
54512;BME280;40419;47.438;19.026;2023-09-19T16:34:06;99678.34;;;19.47;100.00
54512;BME280;40419;47.438;19.026;2023-09-19T16:36:33;99686.03;;;19.45;100.00
54512;BME280;40419;47.438;19.026;2023-09-19T16:39:04;99679.94;;;19.38;100.00
54512;BME280;40419;47.438;19.026;2023-09-19T16:41:30;99688.94;;;19.28;100.00
54512;BME280;40419;47.438;19.026;2023-09-19T16:44:00;99684.19;;;19.18;100.00
54512;BME280;40419;47.438;19.026;2023-09-19T16:46:29;99690.25;;;19.20;100.00
54512;BME280;40419;47.438;19.026;2023-09-19T16:48:57;99687.75;;;19.13;100.00
54512;BME280;40419;47.438;19.026;2023-09-19T16:51:28;99697.63;;;19.15;100.00
54512;BME280;40419;47.438;19.026;2023-09-19T16:53:56;99703.41;;;19.18;100.00
54512;BME280;40419;47.438;19.026;2023-09-19T16:56:22;99697.63;;;19.15;100.00
54512;BME280;40419;47.438;19.026;2023-09-19T16:58:50;99701.72;;;19.12;100.00
54512;BME280;40419;47.438;19.026;2023-09-19T17:01:17;99694.88;;;19.15;100.00
54512;BME280;40419;47.438;19.026;2023-09-19T17:03:47;99708.03;;;19.12;100.00
54512;BME280;40419;47.438;19.026;2023-09-19T17:06:14;99703.69;;;19.17;100.00
54512;BME280;40419;47.438;19.026;2023-09-19T17:08:41;99710.47;;;19.09;100.00
54512;BME280;40419;47.438;19.026;2023-09-19T17:11:13;99721.72;;;19.07;100.00
54512;BME280;40419;47.438;19.026;2023-09-19T17:13:44;99730.47;;;19.04;100.00
54512;BME280;40419;47.438;19.026;2023-09-19T17:16:14;99730.16;;;19.01;100.00
54512;BME280;40419;47.438;19.026;2023-09-19T17:18:45;99739.75;;;18.98;100.00
54512;BME280;40419;47.438;19.026;2023-09-19T17:21:12;99737.84;;;18.99;100.00
54512;BME280;40419;47.438;19.026;2023-09-19T17:23:38;99737.28;;;18.97;100.00
54512;BME280;40419;47.438;19.026;2023-09-19T17:26:10;99733.94;;;18.94;100.00
54512;BME280;40419;47.438;19.026;2023-09-19T17:28:41;99734.81;;;18.95;100.00
54512;BME280;40419;47.438;19.026;2023-09-19T17:31:10;99739.41;;;18.89;100.00
54512;BME280;40419;47.438;19.026;2023-09-19T17:33:43;99740.53;;;18.93;100.00
54512;BME280;40419;47.438;19.026;2023-09-19T17:36:20;99734.19;;;18.88;100.00
54512;BME280;40419;47.438;19.026;2023-09-19T17:38:56;99744.50;;;18.81;100.00
54512;BME280;40419;47.438;19.026;2023-09-19T17:41:25;99738.19;;;18.80;100.00
54512;BME280;40419;47.438;19.026;2023-09-19T17:43:54;99741.50;;;18.82;100.00
54512;BME280;40419;47.438;19.026;2023-09-19T17:46:23;99740.69;;;18.82;100.00
54512;BME280;40419;47.438;19.026;2023-09-19T17:48:56;99746.94;;;18.77;100.00
54512;BME280;40419;47.438;19.026;2023-09-19T17:51:26;99742.81;;;18.74;100.00
54512;BME280;40419;47.438;19.026;2023-09-19T17:53:55;99752.69;;;18.75;100.00
54512;BME280;40419;47.438;19.026;2023-09-19T17:56:47;99750.72;;;18.71;100.00
54512;BME280;40419;47.438;19.026;2023-09-19T17:59:39;99759.47;;;18.68;100.00
54512;BME280;40419;47.438;19.026;2023-09-19T18:02:06;99760.81;;;18.65;100.00
54512;BME280;40419;47.438;19.026;2023-09-19T18:04:32;99746.59;;;18.68;100.00
54512;BME280;40419;47.438;19.026;2023-09-19T18:06:57;99764.38;;;18.66;100.00
54512;BME280;40419;47.438;19.026;2023-09-19T18:09:27;99763.56;;;18.65;100.00
54512;BME280;40419;47.438;19.026;2023-09-19T18:11:55;99762.66;;;18.59;100.00
54512;BME280;40419;47.438;19.026;2023-09-19T18:14:26;99766.72;;;18.52;100.00
54512;BME280;40419;47.438;19.026;2023-09-19T18:17:23;99763.34;;;18.45;100.00
54512;BME280;40419;47.438;19.026;2023-09-19T18:19:48;99764.69;;;18.42;100.00
54512;BME280;40419;47.438;19.026;2023-09-19T18:22:25;99772.59;;;18.38;100.00
54512;BME280;40419;47.438;19.026;2023-09-19T18:24:54;99774.75;;;18.36;100.00
54512;BME280;40419;47.438;19.026;2023-09-19T18:27:19;99777.44;;;18.31;100.00
54512;BME280;40419;47.438;19.026;2023-09-19T18:29:55;99783.75;;;18.32;100.00
54512;BME280;40419;47.438;19.026;2023-09-19T18:32:20;99775.78;;;18.30;100.00
54512;BME280;40419;47.438;19.026;2023-09-19T18:35:05;99780.13;;;18.26;100.00
54512;BME280;40419;47.438;19.026;2023-09-19T18:38:03;99785.44;;;18.33;100.00
54512;BME280;40419;47.438;19.026;2023-09-19T18:44:16;99780.06;;;18.21;100.00
54512;BME280;40419;47.438;19.026;2023-09-19T18:46:51;99788.66;;;18.30;100.00
54512;BME280;40419;47.438;19.026;2023-09-19T18:49:28;99793.06;;;18.31;100.00
54512;BME280;40419;47.438;19.026;2023-09-19T18:52:16;99789.66;;;18.23;100.00
54512;BME280;40419;47.438;19.026;2023-09-19T18:54:48;99795.16;;;18.23;100.00
54512;BME280;40419;47.438;19.026;2023-09-19T18:57:33;99792.09;;;18.20;100.00
54512;BME280;40419;47.438;19.026;2023-09-19T19:00:14;99792.66;;;18.22;100.00
54512;BME280;40419;47.438;19.026;2023-09-19T19:02:54;99791.22;;;18.14;100.00
54512;BME280;40419;47.438;19.026;2023-09-19T19:05:20;99799.94;;;18.11;100.00